Time;durP1;ratioP1;P1;durP2;ratioP2;P2;SDS_P1;SDS_P2;PMS_P1;PMS_P2;Temp;Humidity;BMP_temperature;BMP_pressure;BME280_temperature;BME280_humidity;BME280_pressure;Samples;Min_cycle;Max_cycle;Signal;HPM_P1;HPM_P2
2023/05/25 04:37:50;;;;;;;11.13;4.07;;;15.20;68.60;;;;;;5030969;24;20054;-66
2023/05/25 04:40:16;;;;;;;10.07;4.28;;;15.30;68.70;;;;;;4808484;29;20054;-66
2023/05/25 04:42:41;;;;;;;10.23;4.38;;;15.30;68.70;;;;;;4800894;29;20047;-66
2023/05/25 04:45:09;;;;;;;10.38;4.03;;;15.30;68.90;;;;;;4785695;29;20062;-67
2023/05/25 04:47:36;;;;;;;16.92;4.65;;;15.30;69.20;;;;;;4808748;29;20051;-67
2023/05/25 04:50:03;;;;;;;14.20;4.55;;;15.30;69.40;;;;;;4808744;29;20147;-64
2023/05/25 04:52:28;;;;;;;18.83;4.95;;;15.30;69.30;;;;;;4803615;29;20075;-66
2023/05/25 04:54:54;;;;;;;16.15;4.88;;;15.40;69.50;;;;;;4790331;29;20097;-67
2023/05/25 04:57:21;;;;;;;14.55;4.75;;;15.40;69.50;;;;;;4790238;30;20087;-67
2023/05/25 04:59:46;;;;;;;13.02;4.20;;;15.40;69.60;;;;;;4790988;30;20059;-67
2023/05/25 05:02:12;;;;;;;12.80;4.93;;;15.40;69.80;;;;;;4792251;29;20066;-68
2023/05/25 05:04:40;;;;;;;17.20;4.50;;;15.40;69.90;;;;;;4808242;29;20079;-68
2023/05/25 05:07:06;;;;;;;13.63;4.82;;;15.40;69.90;;;;;;4808474;29;20067;-67
2023/05/25 05:09:32;;;;;;;18.63;5.28;;;15.40;69.90;;;;;;4800478;29;20058;-66
2023/05/25 05:11:58;;;;;;;18.27;5.25;;;15.40;70.10;;;;;;4803483;29;20058;-66
2023/05/25 05:14:23;;;;;;;11.50;4.13;;;15.40;70.20;;;;;;4806255;29;20054;-66
2023/05/25 05:16:50;;;;;;;15.13;4.95;;;15.40;70.20;;;;;;4774442;30;20051;-66
2023/05/25 05:19:15;;;;;;;11.07;4.72;;;15.40;70.40;;;;;;4799535;29;20494;-70
2023/05/25 05:21:41;;;;;;;16.38;4.60;;;15.40;70.60;;;;;;4808220;29;20063;-66
2023/05/25 05:24:07;;;;;;;16.33;5.70;;;15.40;70.80;;;;;;4800574;29;20367;-66
2023/05/25 05:26:33;;;;;;;20.15;5.47;;;15.40;70.90;;;;;;4796051;29;20047;-66
2023/05/25 05:28:58;;;;;;;20.35;5.78;;;15.50;71.00;;;;;;4794818;29;20051;-68
2023/05/25 05:31:26;;;;;;;19.10;5.90;;;15.40;71.00;;;;;;4807942;29;20121;-68
2023/05/25 05:33:51;;;;;;;18.10;5.75;;;15.50;71.30;;;;;;4808228;29;20050;-68
2023/05/25 05:36:17;;;;;;;16.83;6.25;;;15.50;71.30;;;;;;4808184;29;20443;-66
2023/05/25 05:38:45;;;;;;;18.95;5.88;;;15.50;71.30;;;;;;4805979;29;20077;-68
2023/05/25 05:41:14;;;;;;;19.83;5.32;;;15.50;71.50;;;;;;4808234;29;20051;-66
2023/05/25 05:43:42;;;;;;;36.83;8.98;;;15.50;71.60;;;;;;4808076;29;20061;-67
2023/05/25 05:46:09;;;;;;;22.23;7.25;;;15.50;72.20;;;;;;4808401;29;20128;-67
2023/05/25 05:48:36;;;;;;;15.18;6.53;;;15.60;73.30;;;;;;4807561;29;20104;-67
2023/05/25 05:51:05;;;;;;;16.13;7.13;;;15.60;73.70;;;;;;4807769;29;20066;-66
2023/05/25 05:53:37;;;;;;;22.23;7.25;;;15.60;73.60;;;;;;4807701;29;20130;-66
2023/05/25 05:56:03;;;;;;;27.40;7.93;;;15.70;73.70;;;;;;4807837;29;20107;-66
2023/05/25 05:58:31;;;;;;;22.92;7.13;;;15.60;73.50;;;;;;4807414;29;20042;-67
2023/05/25 06:00:58;;;;;;;16.48;6.65;;;15.60;73.60;;;;;;4807611;29;20128;-66
2023/05/25 06:03:26;;;;;;;13.43;6.15;;;15.60;73.60;;;;;;4807549;29;20500;-70
2023/05/25 06:05:52;;;;;;;20.33;7.00;;;15.60;73.60;;;;;;4807644;29;20054;-65
2023/05/25 06:08:18;;;;;;;19.05;6.00;;;15.50;73.70;;;;;;4807174;29;20520;-66
2023/05/25 06:10:43;;;;;;;17.23;6.30;;;15.60;73.80;;;;;;4807709;29;20170;-66
2023/05/25 06:13:09;;;;;;;18.17;5.80;;;15.50;73.90;;;;;;4808376;29;20438;-66
2023/05/25 06:15:35;;;;;;;19.20;6.13;;;15.60;73.90;;;;;;4807868;29;20047;-67
2023/05/25 06:18:00;;;;;;;59.25;8.45;;;15.60;73.70;;;;;;4806188;29;20497;-67
2023/05/25 06:20:26;;;;;;;30.38;6.05;;;15.60;73.70;;;;;;4806994;29;20057;-66
2023/05/25 06:22:52;;;;;;;18.02;5.97;;;15.60;73.70;;;;;;4807558;29;20066;-66
2023/05/25 06:25:19;;;;;;;16.05;5.65;;;15.70;73.60;;;;;;4805139;29;20053;-66
2023/05/25 06:27:45;;;;;;;14.05;4.93;;;15.70;73.10;;;;;;4803287;29;20047;-65
2023/05/25 06:30:11;;;;;;;14.02;4.53;;;15.60;72.60;;;;;;4793186;29;20115;-66
2023/05/25 06:32:36;;;;;;;19.77;5.22;;;15.60;72.60;;;;;;4792850;30;20454;-65
2023/05/25 06:35:03;;;;;;;10.18;3.65;;;15.50;72.60;;;;;;4797421;29;20062;-65
2023/05/25 06:37:34;;;;;;;8.77;3.72;;;15.50;72.50;;;;;;4807957;29;20087;-64
2023/05/25 06:40:01;;;;;;;12.38;4.90;;;15.50;72.70;;;;;;4828884;29;20058;-64
2023/05/25 06:42:27;;;;;;;10.50;3.67;;;15.50;72.80;;;;;;4821361;29;20103;-64
2023/05/25 06:44:53;;;;;;;8.30;3.95;;;15.50;72.90;;;;;;4810955;29;20462;-65
2023/05/25 06:47:19;;;;;;;10.25;4.05;;;15.50;72.90;;;;;;4810806;29;20099;-67
2023/05/25 06:49:45;;;;;;;11.77;4.38;;;15.50;72.80;;;;;;4828340;29;20129;-66
2023/05/25 06:52:11;;;;;;;15.20;4.15;;;15.50;73.40;;;;;;4828415;29;20047;-66
2023/05/25 06:54:37;;;;;;;12.32;3.72;;;15.60;72.70;;;;;;4828449;29;20054;-67
2023/05/25 06:57:04;;;;;;;16.80;4.13;;;15.60;72.70;;;;;;4825972;29;20143;-66
2023/05/25 06:59:30;;;;;;;24.05;5.07;;;15.60;72.90;;;;;;4824082;29;20351;-68
2023/05/25 07:01:57;;;;;;;23.90;5.07;;;15.60;72.90;;;;;;4828155;29;20057;-66
2023/05/25 07:04:23;;;;;;;18.63;4.10;;;15.70;72.80;;;;;;4828420;29;20346;-65
2023/05/25 07:06:50;;;;;;;21.20;4.57;;;15.70;72.70;;;;;;4827840;29;20050;-68
2023/05/25 07:09:16;;;;;;;20.65;5.00;;;15.70;72.70;;;;;;4826695;29;20153;-70
2023/05/25 07:11:42;;;;;;;17.63;4.13;;;15.70;72.50;;;;;;4818272;29;20122;-68
2023/05/25 07:14:07;;;;;;;17.27;4.43;;;15.80;72.40;;;;;;4810413;29;20362;-67
2023/05/25 07:16:33;;;;;;;20.92;4.55;;;15.80;72.30;;;;;;4813646;29;20139;-68
2023/05/25 07:18:59;;;;;;;16.88;4.75;;;15.80;72.00;;;;;;4808923;29;20065;-67
2023/05/25 07:21:25;;;;;;;13.02;3.83;;;15.80;71.90;;;;;;4810094;29;20046;-67
2023/05/25 07:23:51;;;;;;;14.15;5.00;;;15.80;71.70;;;;;;4805617;29;20066;-68
2023/05/25 07:26:17;;;;;;;11.48;4.10;;;15.80;71.70;;;;;;4828145;29;20058;-67
2023/05/25 07:28:42;;;;;;;13.25;3.80;;;15.70;71.60;;;;;;4811143;29;20078;-67
2023/05/25 07:31:10;;;;;;;10.35;4.18;;;15.70;71.50;;;;;;4809901;29;20061;-67
2023/05/25 07:33:36;;;;;;;12.13;4.78;;;15.70;71.30;;;;;;4809526;29;20054;-67
2023/05/25 07:36:01;;;;;;;15.00;3.85;;;15.80;71.20;;;;;;4809302;29;20055;-67
2023/05/25 07:38:27;;;;;;;10.30;3.80;;;15.70;71.00;;;;;;4823232;29;20086;-67
2023/05/25 07:40:53;;;;;;;13.50;3.95;;;15.70;70.90;;;;;;4828517;29;20481;-67
2023/05/25 07:43:19;;;;;;;15.05;3.88;;;15.70;70.80;;;;;;4828123;29;20339;-67
2023/05/25 07:45:44;;;;;;;13.57;4.30;;;15.80;70.60;;;;;;4823041;29;20050;-66
2023/05/25 07:48:10;;;;;;;11.55;4.28;;;15.80;70.30;;;;;;4824855;29;20066;-66
2023/05/25 07:50:36;;;;;;;12.70;4.10;;;15.70;70.30;;;;;;4827537;29;20054;-66
2023/05/25 07:53:01;;;;;;;16.52;5.28;;;15.70;70.30;;;;;;4827482;29;20062;-66
2023/05/25 07:55:27;;;;;;;12.50;4.90;;;15.80;70.90;;;;;;4806417;29;20497;-66
2023/05/25 07:57:53;;;;;;;14.23;4.78;;;15.80;70.20;;;;;;4822878;29;20043;-66
2023/05/25 08:00:19;;;;;;;16.25;5.18;;;15.80;70.10;;;;;;4827415;29;20055;-67
2023/05/25 08:02:45;;;;;;;16.30;4.88;;;15.80;70.00;;;;;;4826095;29;20061;-66
2023/05/25 08:05:11;;;;;;;22.90;6.05;;;15.80;69.60;;;;;;4826880;29;20121;-66
2023/05/25 08:07:37;;;;;;;15.60;5.43;;;15.80;69.20;;;;;;4827186;29;20191;-66
2023/05/25 08:10:03;;;;;;;14.38;4.45;;;15.80;69.10;;;;;;4824697;29;20454;-67
2023/05/25 08:12:29;;;;;;;14.73;4.85;;;15.90;69.20;;;;;;4821604;29;20114;-66
2023/05/25 08:14:55;;;;;;;15.57;4.68;;;15.90;69.10;;;;;;4827129;29;20046;-66
2023/05/25 08:17:21;;;;;;;15.90;5.28;;;15.90;68.90;;;;;;4826328;29;20049;-66
2023/05/25 08:19:47;;;;;;;20.17;5.50;;;15.90;68.70;;;;;;4820836;29;20050;-66
2023/05/25 08:22:13;;;;;;;20.17;5.60;;;15.90;68.10;;;;;;4811792;29;20374;-66
2023/05/25 08:24:38;;;;;;;17.73;5.13;;;15.90;68.20;;;;;;4811219;29;20069;-66
2023/05/25 08:27:04;;;;;;;16.13;4.95;;;15.90;68.30;;;;;;4826593;29;20043;-66
2023/05/25 08:29:30;;;;;;;21.13;5.38;;;15.90;68.30;;;;;;4827089;29;20435;-66
2023/05/25 08:31:56;;;;;;;21.20;5.35;;;16.00;68.30;;;;;;4826711;29;20058;-66
2023/05/25 08:34:22;;;;;;;19.08;5.47;;;16.00;68.20;;;;;;4827230;29;20466;-66
2023/05/25 08:36:47;;;;;;;15.18;5.18;;;16.00;67.70;;;;;;4811223;29;20458;-66
2023/05/25 08:39:14;;;;;;;15.85;4.60;;;16.00;67.20;;;;;;4808501;29;20065;-66
2023/05/25 08:41:42;;;;;;;13.88;4.47;;;16.00;67.20;;;;;;4808831;29;20067;-67
2023/05/25 08:44:08;;;;;;;15.90;5.15;;;16.00;67.10;;;;;;4808925;29;20097;-66
2023/05/25 08:46:34;;;;;;;19.85;5.13;;;16.00;67.00;;;;;;4820816;29;20046;-66
2023/05/25 08:49:10;;;;;;;24.83;5.80;;;16.00;66.80;;;;;;4826341;29;20057;-66
2023/05/25 08:51:37;;;;;;;17.90;5.57;;;16.00;66.80;;;;;;4809967;29;20470;-66
2023/05/25 08:54:12;;;;;;;16.88;4.90;;;16.00;66.40;;;;;;4826968;29;20050;-67
2023/05/25 08:57:15;;;;;;;20.60;5.13;;;16.00;65.80;;;;;;4809889;29;20053;-66
2023/05/25 08:59:44;;;;;;;24.40;5.60;;;16.00;65.70;;;;;;4779782;29;20101;-67
2023/05/25 09:02:31;;;;;;;23.92;5.63;;;16.00;65.90;;;;;;4826880;29;20050;-66
2023/05/25 09:04:58;;;;;;;18.25;4.43;;;16.10;64.60;;;;;;4827173;29;20462;-67
2023/05/25 09:07:25;;;;;;;16.75;4.47;;;16.20;63.50;;;;;;4808340;29;20051;-67
2023/05/25 09:09:51;;;;;;;14.65;4.57;;;16.10;62.30;;;;;;4813259;29;20081;-69
2023/05/25 09:12:17;;;;;;;20.63;5.03;;;16.10;63.40;;;;;;4826452;29;20090;-67
2023/05/25 09:14:46;;;;;;;22.92;6.05;;;16.10;63.70;;;;;;4810660;29;20450;-67
2023/05/25 09:17:16;;;;;;;23.25;5.38;;;16.10;64.50;;;;;;4826035;29;20050;-68
2023/05/25 09:19:43;;;;;;;20.73;5.30;;;16.10;62.90;;;;;;4806135;29;20055;-67
2023/05/25 09:22:11;;;;;;;18.67;4.38;;;16.10;63.20;;;;;;4819780;29;20130;-66
2023/05/25 09:24:40;;;;;;;18.27;4.78;;;16.10;61.30;;;;;;4810187;29;20054;-66
2023/05/25 09:27:09;;;;;;;18.13;5.40;;;16.10;61.00;;;;;;4825920;29;20054;-66
2023/05/25 09:29:35;;;;;;;15.15;5.15;;;16.10;61.50;;;;;;4826390;29;20133;-66
2023/05/25 09:32:05;;;;;;;17.42;4.82;;;16.10;61.70;;;;;;4826139;29;20129;-66
2023/05/25 09:34:34;;;;;;;19.23;4.53;;;16.10;61.70;;;;;;4810783;29;20066;-66
2023/05/25 09:37:02;;;;;;;16.92;5.20;;;16.10;61.90;;;;;;4811166;29;20050;-67
2023/05/25 09:39:28;;;;;;;16.73;5.10;;;16.10;61.40;;;;;;4808006;29;20491;-66
2023/05/25 09:41:55;;;;;;;21.38;5.40;;;16.20;61.60;;;;;;4808059;29;20118;-65
2023/05/25 09:44:21;;;;;;;19.75;5.15;;;16.20;62.20;;;;;;4808090;29;20063;-65
2023/05/25 09:46:46;;;;;;;22.98;5.30;;;16.20;61.80;;;;;;4819337;29;20069;-64
2023/05/25 09:49:12;;;;;;;16.60;4.78;;;16.30;60.80;;;;;;4826159;29;20047;-65
2023/05/25 09:51:39;;;;;;;19.02;5.28;;;16.20;61.20;;;;;;4826197;29;20057;-65
2023/05/25 09:54:09;;;;;;;17.83;5.15;;;16.30;60.20;;;;;;4809996;29;20203;-65
2023/05/25 09:56:35;;;;;;;13.73;4.45;;;16.30;60.30;;;;;;4815444;29;20085;-67
2023/05/25 09:59:01;;;;;;;17.98;5.32;;;16.20;61.50;;;;;;4807539;29;20047;-65
2023/05/25 10:01:27;;;;;;;15.20;4.80;;;16.20;61.30;;;;;;4811012;29;20050;-64
2023/05/25 10:03:55;;;;;;;15.00;5.18;;;16.30;59.50;;;;;;4795626;29;20055;-65
2023/05/25 10:06:23;;;;;;;15.18;5.43;;;16.30;60.50;;;;;;4818837;29;20081;-65
2023/05/25 10:08:51;;;;;;;20.10;5.45;;;16.30;61.30;;;;;;4813358;29;20058;-65
2023/05/25 10:11:20;;;;;;;16.58;4.72;;;16.40;61.00;;;;;;4829703;29;20381;-65
2023/05/25 10:13:47;;;;;;;19.83;5.22;;;16.30;61.20;;;;;;4828729;29;20470;-65
2023/05/25 10:16:17;;;;;;;22.05;5.53;;;16.40;61.20;;;;;;4822585;29;20038;-66
2023/05/25 10:19:07;;;;;;;15.57;4.68;;;16.30;61.00;;;;;;4799655;29;20062;-66
2023/05/25 10:21:35;;;;;;;21.83;6.07;;;16.30;60.50;;;;;;4829228;29;20096;-69
2023/05/25 10:24:12;;;;;;;24.63;6.57;;;16.30;60.20;;;;;;4828606;29;20145;-65
2023/05/25 10:26:46;;;;;;;21.60;6.07;;;16.30;61.40;;;;;;4828145;29;20118;-66
2023/05/25 10:29:13;;;;;;;23.17;5.00;;;16.40;61.20;;;;;;4828985;29;20051;-67
2023/05/25 10:31:39;;;;;;;25.38;5.63;;;16.30;61.10;;;;;;4828257;29;20089;-66
2023/05/25 10:34:05;;;;;;;22.83;5.32;;;16.40;61.10;;;;;;4829004;29;20050;-66
2023/05/25 10:36:33;;;;;;;20.42;5.05;;;16.30;61.10;;;;;;4828382;29;20523;-69
2023/05/25 10:39:00;;;;;;;22.80;5.78;;;16.30;61.30;;;;;;4826337;29;20062;-66
2023/05/25 10:41:26;;;;;;;26.80;5.85;;;16.30;62.20;;;;;;4828978;29;20050;-66
2023/05/25 10:43:53;;;;;;;20.58;5.63;;;16.40;61.60;;;;;;4828660;29;20433;-66
2023/05/25 10:46:20;;;;;;;28.45;5.53;;;16.40;61.60;;;;;;4828285;29;20431;-66
2023/05/25 10:48:48;;;;;;;22.67;5.75;;;16.40;61.50;;;;;;4828279;29;20065;-67
2023/05/25 10:51:13;;;;;;;20.48;5.57;;;16.40;61.80;;;;;;4828292;29;20054;-66
2023/05/25 10:53:44;;;;;;;24.33;5.72;;;16.40;61.90;;;;;;4828225;29;20543;-66
2023/05/25 10:56:12;;;;;;;25.23;5.75;;;16.50;61.80;;;;;;4827919;29;20046;-66
2023/05/25 10:58:45;;;;;;;20.30;4.93;;;16.50;61.10;;;;;;4828624;29;20058;-66
2023/05/25 11:01:13;;;;;;;18.98;5.50;;;16.50;60.90;;;;;;4828489;29;20059;-67
2023/05/25 11:04:17;;;;;;;25.33;5.90;;;16.40;60.80;;;;;;4827783;29;20393;-67
2023/05/25 11:06:45;;;;;;;22.40;5.53;;;16.40;61.60;;;;;;4824488;29;20042;-67
2023/05/25 11:09:28;;;;;;;23.67;5.45;;;16.40;61.50;;;;;;4813819;29;20143;-66
2023/05/25 11:11:58;;;;;;;23.42;6.15;;;16.40;61.70;;;;;;4827733;29;20050;-66
2023/05/25 11:14:28;;;;;;;22.10;6.03;;;16.40;62.20;;;;;;4827363;29;20117;-67
2023/05/25 11:17:23;;;;;;;39.13;6.55;;;16.50;62.00;;;;;;4828094;29;20355;-67
2023/05/25 11:20:00;;;;;;;24.65;6.15;;;16.50;63.40;;;;;;4801952;29;20063;-67
2023/05/25 11:22:39;;;;;;;25.80;5.28;;;16.50;62.20;;;;;;4810696;29;20139;-68
2023/05/25 11:25:41;;;;;;;25.70;5.93;;;16.50;63.80;;;;;;4809908;29;20058;-66
2023/05/25 11:28:10;;;;;;;23.33;5.93;;;16.50;63.00;;;;;;4817305;29;20394;-66
2023/05/25 11:30:39;;;;;;;22.65;5.55;;;16.50;62.10;;;;;;4827774;29;20054;-66
2023/05/25 11:33:06;;;;;;;27.00;6.07;;;16.50;61.80;;;;;;4813890;29;20058;-66
2023/05/25 11:35:32;;;;;;;24.35;5.78;;;16.60;61.70;;;;;;4809534;29;20086;-67
2023/05/25 11:37:59;;;;;;;30.80;6.32;;;16.60;60.90;;;;;;4793260;29;20093;-67
2023/05/25 11:40:29;;;;;;;30.70;5.95;;;16.60;62.30;;;;;;4809739;29;20127;-67
2023/05/25 11:42:59;;;;;;;48.05;9.48;;;16.60;63.10;;;;;;4811209;29;20093;-68
2023/05/25 11:45:27;;;;;;;39.10;7.85;;;16.60;65.10;;;;;;4811693;29;20138;-66
2023/05/25 11:47:53;;;;;;;56.08;8.00;;;16.60;65.70;;;;;;4809449;29;20058;-65
2023/05/25 11:50:20;;;;;;;39.20;6.72;;;16.70;65.30;;;;;;4809384;29;20532;-68
2023/05/25 11:52:46;;;;;;;33.03;7.05;;;16.70;64.90;;;;;;4811908;29;20050;-65
2023/05/25 11:55:15;;;;;;;38.20;6.82;;;16.70;64.40;;;;;;4827188;29;20382;-65
2023/05/25 11:57:41;;;;;;;43.40;7.88;;;16.70;63.80;;;;;;4827634;29;20054;-69
2023/05/25 12:00:11;;;;;;;31.73;6.38;;;16.70;63.50;;;;;;4822328;29;20360;-67
2023/05/25 12:02:38;;;;;;;43.45;7.85;;;16.70;63.20;;;;;;4825717;29;20198;-67
2023/05/25 12:05:05;;;;;;;57.97;10.02;;;16.70;63.20;;;;;;4827097;29;20454;-71
2023/05/25 12:07:31;;;;;;;31.33;6.70;;;16.70;64.00;;;;;;4827635;29;20046;-65
2023/05/25 12:10:07;;;;;;;33.35;6.43;;;16.70;63.80;;;;;;4827506;29;20061;-67
2023/05/25 12:12:40;;;;;;;28.80;6.57;;;16.70;63.90;;;;;;4826893;29;20057;-65
2023/05/25 12:15:08;;;;;;;22.92;5.45;;;16.70;62.60;;;;;;4827880;29;20053;-65
2023/05/25 12:17:34;;;;;;;20.50;5.60;;;16.70;61.80;;;;;;4827246;29;20125;-65
2023/05/25 12:20:00;;;;;;;31.30;6.82;;;16.60;61.10;;;;;;4811347;29;20057;-65
2023/05/25 12:22:26;;;;;;;22.65;6.00;;;16.60;60.90;;;;;;4826564;29;20051;-64
2023/05/25 12:24:52;;;;;;;31.70;6.97;;;16.50;60.80;;;;;;4811712;29;20053;-64
2023/05/25 12:27:21;;;;;;;26.33;5.50;;;16.50;60.80;;;;;;4823086;29;20059;-65
2023/05/25 12:29:47;;;;;;;28.33;6.80;;;16.50;61.10;;;;;;4827118;29;20054;-67
2023/05/25 12:32:13;;;;;;;20.83;5.57;;;16.60;61.20;;;;;;4811443;29;20054;-65
2023/05/25 12:34:39;;;;;;;26.35;6.47;;;16.60;61.40;;;;;;4815204;29;20050;-65
2023/05/25 12:37:20;;;;;;;33.60;8.45;;;16.60;61.10;;;;;;4826865;29;20055;-66
2023/05/25 12:39:46;;;;;;;26.33;6.57;;;16.60;61.30;;;;;;4810771;29;20058;-65
2023/05/25 12:42:14;;;;;;;24.40;5.55;;;16.60;61.10;;;;;;4826724;29;20354;-66
2023/05/25 12:44:41;;;;;;;23.63;6.03;;;16.60;60.80;;;;;;4826540;29;20081;-66
2023/05/25 12:47:23;;;;;;;28.33;5.82;;;16.60;60.90;;;;;;4826841;29;20042;-66
2023/05/25 12:50:13;;;;;;;26.98;6.18;;;16.60;61.10;;;;;;4827109;29;20061;-65
2023/05/25 12:52:43;;;;;;;23.48;6.70;;;16.60;61.10;;;;;;4799307;29;20393;-66
2023/05/25 12:55:21;;;;;;;24.73;6.20;;;16.60;61.10;;;;;;4825914;29;20434;-66
2023/05/25 12:57:54;;;;;;;21.75;6.05;;;16.60;60.60;;;;;;4826732;29;20062;-65
2023/05/25 13:00:22;;;;;;;24.95;6.50;;;16.60;60.70;;;;;;4827557;29;20059;-66
2023/05/25 13:02:48;;;;;;;19.98;6.00;;;16.60;60.90;;;;;;4827207;29;20057;-65
2023/05/25 13:05:21;;;;;;;23.20;6.40;;;16.60;60.90;;;;;;4808351;29;20087;-66
2023/05/25 13:07:47;;;;;;;26.13;5.70;;;16.70;60.90;;;;;;4808246;29;20051;-65
2023/05/25 13:10:16;;;;;;;22.05;5.95;;;16.70;60.50;;;;;;4807935;29;20055;-66
2023/05/25 13:12:48;;;;;;;22.15;5.95;;;16.60;60.40;;;;;;4807307;29;20062;-66
2023/05/25 13:15:20;;;;;;;17.83;5.30;;;16.70;60.50;;;;;;4824952;29;20066;-67
2023/05/25 13:17:57;;;;;;;;;;;16.60;60.50;;;;;;4810126;29;20318;-66
2023/05/25 13:20:31;;;;;;;19.70;5.47;;;16.70;60.80;;;;;;4826124;29;20072;-66
2023/05/25 13:22:57;;;;;;;18.05;5.38;;;16.60;60.50;;;;;;4819947;29;20497;-66
2023/05/25 13:25:25;;;;;;;20.65;6.13;;;16.60;60.50;;;;;;4825826;29;20110;-65
2023/05/25 13:27:53;;;;;;;21.27;5.40;;;16.70;60.40;;;;;;4826505;29;20057;-66
2023/05/25 13:30:20;;;;;;;19.55;5.18;;;16.70;60.40;;;;;;4815245;29;20058;-66
2023/05/25 13:32:46;;;;;;;15.18;5.22;;;16.70;60.40;;;;;;4814612;29;20444;-66
2023/05/25 13:35:18;;;;;;;20.05;5.07;;;16.70;60.30;;;;;;4809555;29;20050;-65
2023/05/25 13:37:44;;;;;;;17.75;6.10;;;16.70;60.20;;;;;;4821408;29;20456;-65
2023/05/25 13:40:10;;;;;;;24.15;5.95;;;16.70;60.00;;;;;;4826108;29;20129;-66
2023/05/25 13:42:36;;;;;;;19.08;5.30;;;16.70;59.70;;;;;;4826421;29;20353;-65
2023/05/25 13:45:02;;;;;;;18.63;5.38;;;16.70;59.50;;;;;;4825099;29;20142;-66
2023/05/25 13:47:27;;;;;;;22.05;5.28;;;16.70;59.40;;;;;;4824253;29;20092;-66
2023/05/25 13:49:53;;;;;;;20.27;6.15;;;16.70;59.20;;;;;;4826168;29;20141;-65
2023/05/25 13:52:19;;;;;;;21.63;5.07;;;16.70;59.50;;;;;;4825952;29;20057;-66
2023/05/25 13:54:45;;;;;;;19.50;5.93;;;16.70;59.70;;;;;;4825764;29;20060;-66
2023/05/25 13:57:10;;;;;;;15.80;5.32;;;16.70;59.60;;;;;;4824963;29;20050;-66
2023/05/25 13:59:36;;;;;;;15.07;4.60;;;16.70;59.60;;;;;;4820747;29;20152;-66
2023/05/25 14:02:02;;;;;;;19.75;5.97;;;16.70;59.50;;;;;;4825915;29;20133;-66
2023/05/25 14:04:28;;;;;;;20.25;5.20;;;16.70;59.20;;;;;;4821504;29;20522;-65
2023/05/25 14:06:55;;;;;;;18.15;5.97;;;16.70;59.20;;;;;;4824555;29;20050;-65
2023/05/25 14:09:22;;;;;;;22.85;5.63;;;16.70;59.90;;;;;;4825372;29;20084;-68
2023/05/25 14:11:47;;;;;;;27.92;6.10;;;16.70;61.10;;;;;;4820659;29;20136;-66
2023/05/25 14:14:13;;;;;;;20.27;5.25;;;16.70;62.10;;;;;;4808132;29;20051;-67
2023/05/25 14:16:39;;;;;;;20.27;5.82;;;16.70;61.00;;;;;;4807472;29;20166;-66
2023/05/25 14:19:05;;;;;;;26.83;5.80;;;16.70;61.20;;;;;;4818123;29;20407;-66
2023/05/25 14:21:31;;;;;;;23.95;5.30;;;16.70;61.50;;;;;;4825332;29;20062;-67
2023/05/25 14:23:57;;;;;;;22.55;5.93;;;16.80;61.80;;;;;;4808859;29;20127;-66
2023/05/25 14:26:25;;;;;;;36.30;7.07;;;16.70;61.30;;;;;;4825423;29;20054;-66
2023/05/25 14:28:51;;;;;;;23.90;7.05;;;16.70;61.80;;;;;;4825627;29;20058;-68
2023/05/25 14:31:17;;;;;;;20.60;5.90;;;16.80;63.10;;;;;;4808781;29;20369;-65
2023/05/25 14:33:43;;;;;;;21.55;5.93;;;16.80;62.90;;;;;;4825595;29;20137;-66
2023/05/25 14:36:09;;;;;;;20.10;5.03;;;16.80;63.00;;;;;;4810194;29;20183;-65
2023/05/25 14:38:34;;;;;;;18.67;5.50;;;16.80;63.10;;;;;;4825577;29;20058;-65
2023/05/25 14:41:01;;;;;;;21.50;5.68;;;16.80;63.20;;;;;;4825625;29;20066;-65
2023/05/25 14:43:26;;;;;;;19.55;5.25;;;16.80;63.30;;;;;;4808894;29;20062;-65
2023/05/25 14:45:52;;;;;;;21.58;5.43;;;16.80;63.30;;;;;;4808073;29;20398;-66
2023/05/25 14:48:21;;;;;;;19.60;5.40;;;16.80;63.50;;;;;;4811421;29;20100;-65
2023/05/25 14:50:48;;;;;;;19.52;4.85;;;16.80;63.50;;;;;;4810899;29;20161;-65
2023/05/25 14:53:14;;;;;;;16.58;4.72;;;16.80;63.60;;;;;;4824128;29;20058;-66
2023/05/25 14:55:40;;;;;;;16.80;4.60;;;16.80;63.60;;;;;;4828421;29;20054;-64
2023/05/25 14:58:06;;;;;;;15.93;4.70;;;16.80;63.70;;;;;;4828323;29;20407;-65
2023/05/25 15:00:32;;;;;;;19.00;4.80;;;16.80;63.80;;;;;;4828866;29;20141;-65
2023/05/25 15:02:58;;;;;;;18.40;5.03;;;16.80;63.90;;;;;;4815623;29;20069;-66
2023/05/25 15:05:24;;;;;;;19.08;5.50;;;16.80;64.00;;;;;;4811111;29;20047;-64
2023/05/25 15:07:49;;;;;;;13.93;4.45;;;16.80;64.10;;;;;;4810497;29;20420;-65
2023/05/25 15:10:15;;;;;;;16.60;4.60;;;16.80;64.10;;;;;;4810092;29;20116;-65
2023/05/25 15:12:41;;;;;;;14.45;4.43;;;16.80;64.10;;;;;;4820068;29;20058;-66
2023/05/25 15:15:08;;;;;;;12.93;4.05;;;16.80;64.80;;;;;;4812850;29;20122;-65
2023/05/25 15:17:34;;;;;;;16.02;4.75;;;16.80;64.30;;;;;;4828310;29;20125;-65
2023/05/25 15:20:00;;;;;;;12.13;4.07;;;16.80;64.40;;;;;;4828013;29;20054;-65
2023/05/25 15:22:26;;;;;;;15.13;4.68;;;16.80;64.40;;;;;;4819729;29;20051;-65
2023/05/25 15:24:52;;;;;;;14.15;4.00;;;16.80;64.50;;;;;;4812569;29;20375;-67
2023/05/25 15:27:18;;;;;;;14.10;4.53;;;16.80;64.60;;;;;;4820040;29;20478;-66
2023/05/25 15:29:44;;;;;;;34.13;5.82;;;16.80;64.70;;;;;;4794887;29;20062;-67
2023/05/25 15:32:12;;;;;;;30.27;5.40;;;16.90;65.10;;;;;;4815880;29;20073;-68
2023/05/25 15:34:39;;;;;;;16.25;4.15;;;16.90;65.40;;;;;;4827530;29;20058;-67
2023/05/25 15:37:04;;;;;;;15.70;4.30;;;17.00;65.40;;;;;;4828005;29;20054;-66
2023/05/25 15:39:30;;;;;;;20.45;4.68;;;16.90;65.40;;;;;;4827880;29;20115;-66
2023/05/25 15:41:56;;;;;;;25.55;5.15;;;17.00;65.50;;;;;;4824251;29;20062;-66
2023/05/25 15:44:22;;;;;;;15.25;4.65;;;17.00;65.40;;;;;;4810166;29;20467;-66
2023/05/25 15:46:47;;;;;;;20.83;5.18;;;17.00;63.70;;;;;;4809774;29;20050;-66
2023/05/25 15:49:13;;;;;;;21.85;5.68;;;17.00;62.50;;;;;;4809664;29;20137;-67
2023/05/25 15:51:40;;;;;;;26.13;5.95;;;17.00;62.10;;;;;;4812806;29;20042;-66
2023/05/25 15:54:07;;;;;;;26.17;6.15;;;17.00;61.70;;;;;;4827462;29;20089;-66
2023/05/25 15:56:34;;;;;;;25.63;6.20;;;17.00;61.60;;;;;;4827418;29;20055;-66
2023/05/25 15:59:00;;;;;;;28.30;6.35;;;17.00;61.60;;;;;;4810386;29;20443;-66
2023/05/25 16:01:26;;;;;;;17.83;5.55;;;17.00;61.60;;;;;;4827798;29;20181;-66
2023/05/25 16:03:52;;;;;;;23.33;5.43;;;17.10;61.70;;;;;;4809906;29;20055;-66
2023/05/25 16:06:18;;;;;;;31.40;6.57;;;17.10;61.80;;;;;;4809538;29;20111;-66
2023/05/25 16:08:44;;;;;;;22.45;6.63;;;17.10;62.20;;;;;;4809277;29;20135;-66
2023/05/25 16:11:10;;;;;;;25.13;7.20;;;17.10;61.30;;;;;;4809551;29;20046;-67
2023/05/25 16:13:36;;;;;;;31.83;7.30;;;17.10;62.20;;;;;;4822578;29;20474;-67
2023/05/25 16:16:02;;;;;;;28.55;8.07;;;17.10;63.10;;;;;;4826043;29;20038;-66
2023/05/25 16:18:27;;;;;;;20.67;6.80;;;17.10;63.50;;;;;;4827453;29;20061;-70
2023/05/25 16:20:56;;;;;;;20.92;6.45;;;17.10;62.60;;;;;;4827367;29;20056;-66
2023/05/25 16:23:22;;;;;;;23.92;7.30;;;17.10;61.30;;;;;;4821077;29;20043;-65
2023/05/25 16:25:48;;;;;;;19.42;5.43;;;17.10;61.10;;;;;;4809676;29;20055;-66
2023/05/25 16:28:14;;;;;;;25.08;6.35;;;17.10;60.90;;;;;;4818135;29;20378;-67
2023/05/25 16:30:40;;;;;;;56.60;9.90;;;17.10;60.20;;;;;;4820276;29;20054;-67
2023/05/25 16:33:06;;;;;;;48.25;9.43;;;17.10;63.30;;;;;;4826450;29;20051;-67
2023/05/25 16:35:32;;;;;;;36.28;8.18;;;17.20;65.20;;;;;;4826960;29;20062;-64
2023/05/25 16:37:57;;;;;;;37.00;7.03;;;17.40;66.30;;;;;;4826719;29;20134;-64
2023/05/25 16:40:23;;;;;;;36.05;7.43;;;17.50;66.20;;;;;;4828001;29;20054;-65
2023/05/25 16:42:49;;;;;;;55.00;9.02;;;17.50;66.10;;;;;;4827045;29;20047;-64
2023/05/25 16:45:15;;;;;;;18.95;6.05;;;17.60;66.60;;;;;;4808523;29;20047;-65
2023/05/25 16:47:40;;;;;;;34.05;7.50;;;17.60;64.00;;;;;;4808901;29;20058;-65
2023/05/25 16:50:07;;;;;;;29.40;5.50;;;17.60;61.70;;;;;;4808555;29;20069;-65
2023/05/25 16:52:32;;;;;;;38.97;6.43;;;17.60;61.40;;;;;;4808722;29;20058;-66
2023/05/25 16:54:58;;;;;;;26.50;6.45;;;17.50;60.50;;;;;;4820458;29;20087;-68
2023/05/25 16:57:24;;;;;;;22.60;5.40;;;17.50;59.80;;;;;;4826569;29;20057;-67
2023/05/25 16:59:50;;;;;;;29.67;6.55;;;17.50;59.70;;;;;;4826714;29;20050;-66
2023/05/25 17:02:16;;;;;;;40.75;7.47;;;17.50;62.10;;;;;;4826993;29;20145;-67
2023/05/25 17:04:41;;;;;;;24.48;6.57;;;17.60;63.60;;;;;;4826458;29;20129;-67
2023/05/25 17:07:07;;;;;;;36.28;7.13;;;17.60;64.40;;;;;;4826437;29;20050;-67
2023/05/25 17:09:33;;;;;;;39.75;6.47;;;17.60;64.80;;;;;;4826352;29;20547;-67
2023/05/25 17:12:00;;;;;;;34.55;6.88;;;17.60;65.20;;;;;;4826701;29;20046;-67
2023/05/25 17:14:26;;;;;;;38.42;7.45;;;17.60;65.70;;;;;;4814573;29;20066;-67
2023/05/25 17:16:52;;;;;;;35.13;7.38;;;17.60;65.90;;;;;;4808178;29;20058;-67